createdAt,value
2022-12-05T00:00:37.812Z,92.47
2022-12-05T00:03:07.971Z,92.62
2022-12-05T00:05:42.374Z,92.22
2022-12-05T00:08:09.909Z,92.39
2022-12-05T00:10:38.306Z,93.19
2022-12-05T00:13:08.733Z,92.95
2022-12-05T00:15:40.815Z,93.17
2022-12-05T00:18:10.614Z,92.43
2022-12-05T00:20:37.902Z,92.57
2022-12-05T00:23:05.346Z,92.83
2022-12-05T00:25:36.511Z,91.16
2022-12-05T00:28:03.888Z,91.08
2022-12-05T00:30:31.129Z,91.70
2022-12-05T00:32:59.286Z,90.66
2022-12-05T00:35:26.469Z,91.01
2022-12-05T00:37:54.159Z,91.47
2022-12-05T00:40:21.396Z,90.74
2022-12-05T00:42:52.307Z,90.02
2022-12-05T00:45:20.060Z,90.47
2022-12-05T00:47:47.368Z,90.70
2022-12-05T00:50:14.727Z,90.44
2022-12-05T00:52:42.294Z,90.32
2022-12-05T00:55:13.752Z,89.82
2022-12-05T00:57:41.958Z,89.97
2022-12-05T01:00:12.848Z,90.55
2022-12-05T01:02:45.646Z,90.42
2022-12-05T01:05:16.416Z,91.14
2022-12-05T01:07:43.753Z,90.58
2022-12-05T01:10:13.748Z,90.21
2022-12-05T01:12:40.888Z,90.23
2022-12-05T01:15:09.423Z,89.37
2022-12-05T01:17:36.593Z,90.00
2022-12-05T01:20:04.597Z,89.57
2022-12-05T01:22:31.793Z,90.18
2022-12-05T01:24:59.052Z,90.20
2022-12-05T01:27:26.332Z,89.73
2022-12-05T01:29:53.724Z,91.14
2022-12-05T01:32:21.059Z,89.87
2022-12-05T01:34:48.531Z,90.12
2022-12-05T01:37:18.488Z,89.62
2022-12-05T01:39:48.232Z,90.06
2022-12-05T01:42:15.664Z,90.02
2022-12-05T01:44:42.734Z,88.60
2022-12-05T01:47:10.113Z,88.00
2022-12-05T01:49:41.961Z,90.07
2022-12-05T01:52:20.592Z,91.30
2022-12-05T01:54:51.089Z,89.78
2022-12-05T01:57:19.010Z,89.66
2022-12-05T01:59:56.229Z,90.25
2022-12-05T02:02:24.391Z,90.53
2022-12-05T02:05:03.570Z,91.06
2022-12-05T02:07:32.814Z,90.31
2022-12-05T02:10:00.953Z,90.02
2022-12-05T02:12:28.611Z,89.19
2022-12-05T02:15:38.155Z,90.80
2022-12-05T02:18:32.791Z,90.52
2022-12-05T02:21:37.635Z,91.42
2022-12-05T02:24:34.570Z,90.68
2022-12-05T02:27:29.639Z,91.68
2022-12-05T02:30:20.349Z,89.71
2022-12-05T02:33:20.188Z,91.39
2022-12-05T02:36:07.481Z,91.43
2022-12-05T02:39:30.057Z,92.08
2022-12-05T02:42:39.722Z,92.35
2022-12-05T02:45:14.371Z,90.13
2022-12-05T02:47:50.201Z,89.84
2022-12-05T02:50:28.485Z,91.63
2022-12-05T02:53:01.003Z,91.19
2022-12-05T02:55:31.114Z,90.96
2022-12-05T02:58:03.461Z,90.71
2022-12-05T03:00:30.761Z,89.76
2022-12-05T03:03:02.779Z,90.01
2022-12-05T03:05:33.725Z,89.58
2022-12-05T03:08:04.668Z,90.26
2022-12-05T03:10:36.799Z,89.65
2022-12-05T03:13:18.178Z,90.82
2022-12-05T03:15:53.762Z,89.75
2022-12-05T03:18:34.862Z,89.38
2022-12-05T03:21:30.363Z,88.88
2022-12-05T03:24:06.857Z,89.04
2022-12-05T03:27:21.156Z,91.22
2022-12-05T03:29:59.288Z,90.72
2022-12-05T03:32:45.783Z,90.16
2022-12-05T03:35:39.794Z,90.91
2022-12-05T03:38:51.191Z,90.52
2022-12-05T03:41:53.726Z,90.14
2022-12-05T03:45:06.148Z,89.98
2022-12-05T03:47:45.387Z,90.53
2022-12-05T03:50:29.329Z,89.94
2022-12-05T03:53:20.703Z,90.84
2022-12-05T03:55:59.139Z,91.09
2022-12-05T03:58:36.707Z,89.92
2022-12-05T04:01:08.294Z,89.81
2022-12-05T04:04:00.912Z,89.93
2022-12-05T04:06:35.173Z,89.80
2022-12-05T04:09:16.999Z,90.07
2022-12-05T04:11:52.018Z,89.42
2022-12-05T04:14:28.847Z,89.92
2022-12-05T04:17:12.326Z,91.74
2022-12-05T04:20:13.818Z,89.42
2022-12-05T04:22:42.520Z,89.74
2022-12-05T04:25:32.043Z,90.22
2022-12-05T04:28:30.050Z,89.78
2022-12-05T04:31:08.030Z,90.22
2022-12-05T04:33:56.759Z,90.29
2022-12-05T04:36:31.620Z,89.97
2022-12-05T04:39:26.158Z,88.67
2022-12-05T04:42:26.652Z,88.66
2022-12-05T04:45:00.289Z,87.98
2022-12-05T04:47:33.104Z,88.23
2022-12-05T04:50:02.235Z,89.16
2022-12-05T04:52:31.182Z,88.81
2022-12-05T04:55:20.786Z,89.03
2022-12-05T04:58:07.981Z,88.20
2022-12-05T05:00:50.096Z,88.55
2022-12-05T05:03:56.610Z,88.23
2022-12-05T05:06:24.023Z,89.39
2022-12-05T05:08:57.558Z,88.41
2022-12-05T05:11:32.179Z,89.08
2022-12-05T05:13:59.996Z,88.73
2022-12-05T05:16:34.707Z,88.53
2022-12-05T05:19:03.159Z,87.79
2022-12-05T05:21:35.876Z,88.88
2022-12-05T05:24:15.697Z,88.31
2022-12-05T05:26:45.990Z,87.28
2022-12-05T05:29:15.496Z,86.67
2022-12-05T05:31:43.277Z,86.51
2022-12-05T05:34:16.255Z,87.39
2022-12-05T05:36:44.336Z,88.49
2022-12-05T05:39:15.880Z,88.64
2022-12-05T05:41:44.408Z,88.61
2022-12-05T05:44:11.761Z,87.96
2022-12-05T05:46:39.088Z,89.28
2022-12-05T05:49:06.475Z,89.59
2022-12-05T05:51:33.770Z,88.93
2022-12-05T05:54:01.087Z,87.75
2022-12-05T05:56:29.216Z,88.43
2022-12-05T05:59:08.447Z,89.66
2022-12-05T06:01:35.558Z,87.81
2022-12-05T06:04:08.163Z,87.01
2022-12-05T06:06:35.566Z,87.14
2022-12-05T06:09:02.786Z,88.60
2022-12-05T06:11:30.494Z,88.21
2022-12-05T06:14:03.084Z,88.61
2022-12-05T06:16:32.097Z,87.55
2022-12-05T06:18:59.822Z,87.21
2022-12-05T06:21:27.686Z,88.62
2022-12-05T06:23:55.720Z,88.12
2022-12-05T06:26:24.015Z,89.50
2022-12-05T06:28:53.571Z,88.98
2022-12-05T06:31:23.870Z,87.92
2022-12-05T06:33:51.183Z,88.04
2022-12-05T06:36:22.025Z,88.54
2022-12-05T06:38:52.253Z,89.61
2022-12-05T06:41:25.448Z,88.52
2022-12-05T06:44:02.172Z,88.35
2022-12-05T06:46:30.185Z,87.98
2022-12-05T06:48:59.087Z,89.52
2022-12-05T06:51:29.410Z,87.75
2022-12-05T06:53:57.267Z,87.16
2022-12-05T06:56:24.354Z,87.32
2022-12-05T06:58:53.622Z,87.42
2022-12-05T07:01:38.818Z,86.81
2022-12-05T07:04:24.132Z,88.02
2022-12-05T07:06:56.408Z,88.05
2022-12-05T07:09:44.823Z,88.41
2022-12-05T07:12:14.646Z,89.02
2022-12-05T07:14:48.083Z,88.53
2022-12-05T07:17:17.468Z,87.67
2022-12-05T07:19:45.303Z,87.73
2022-12-05T07:22:15.970Z,88.51
2022-12-05T07:24:44.870Z,88.23
2022-12-05T07:27:15.383Z,87.76
2022-12-05T07:29:42.607Z,88.44
2022-12-05T07:32:12.266Z,87.67
2022-12-05T07:34:42.476Z,87.44
2022-12-05T07:37:13.928Z,90.48
2022-12-05T07:39:41.103Z,90.50
2022-12-05T07:42:08.263Z,89.67
2022-12-05T07:44:39.234Z,90.59
2022-12-05T07:47:06.414Z,89.21
2022-12-05T07:49:33.694Z,89.77
2022-12-05T07:52:00.764Z,89.47
2022-12-05T07:54:27.885Z,89.72
2022-12-05T07:56:55.130Z,90.48
2022-12-05T07:59:22.283Z,89.95
2022-12-05T08:01:49.859Z,89.62
2022-12-05T08:04:17.165Z,88.44
2022-12-05T08:06:44.839Z,88.71
2022-12-05T08:09:16.749Z,88.65
2022-12-05T08:11:51.054Z,89.19
2022-12-05T08:14:22.044Z,88.57
2022-12-05T08:16:49.418Z,88.19
2022-12-05T08:19:17.261Z,89.16
2022-12-05T08:21:44.668Z,88.95
2022-12-05T08:24:13.696Z,88.86
2022-12-05T08:26:43.507Z,88.55
2022-12-05T08:29:14.663Z,88.35
2022-12-05T08:31:49.034Z,87.19
2022-12-05T08:34:19.582Z,87.10
2022-12-05T08:36:47.605Z,87.68
2022-12-05T08:39:18.033Z,87.47
2022-12-05T08:41:47.420Z,86.77
2022-12-05T08:44:18.821Z,88.69
2022-12-05T08:46:49.429Z,87.61
2022-12-05T08:49:19.547Z,86.75
2022-12-05T08:51:49.250Z,87.78
2022-12-05T08:54:17.352Z,87.72
2022-12-05T08:56:44.727Z,87.08
2022-12-05T08:59:12.098Z,87.00
2022-12-05T09:01:40.669Z,86.29
2022-12-05T09:04:10.762Z,85.70
2022-12-05T09:06:40.433Z,87.09
2022-12-05T09:09:11.797Z,85.63
2022-12-05T09:11:46.751Z,86.66
2022-12-05T09:14:15.124Z,86.74
2022-12-05T09:16:46.021Z,87.34
2022-12-05T09:19:18.300Z,86.57
2022-12-05T09:21:45.432Z,85.96
2022-12-05T09:24:14.161Z,85.78
2022-12-05T09:26:44.248Z,88.03
2022-12-05T09:29:18.008Z,87.04
2022-12-05T09:31:50.148Z,86.62
2022-12-05T09:34:18.606Z,86.39
2022-12-05T09:36:46.441Z,86.61
2022-12-05T09:39:14.063Z,86.26
2022-12-05T09:42:21.969Z,87.70
2022-12-05T09:45:32.227Z,86.92
2022-12-05T09:48:15.717Z,87.27
2022-12-05T09:50:50.027Z,86.50
2022-12-05T09:53:33.574Z,85.70
2022-12-05T09:56:16.208Z,86.12
2022-12-05T09:58:52.553Z,87.61
2022-12-05T10:02:14.159Z,85.90
2022-12-05T10:05:02.697Z,86.44
2022-12-05T10:08:03.288Z,85.92
2022-12-05T10:10:45.794Z,85.50
2022-12-05T10:13:28.383Z,85.36
2022-12-05T10:16:21.910Z,84.70
2022-12-05T10:19:06.615Z,83.63
2022-12-05T10:21:52.903Z,84.96
2022-12-05T10:24:33.957Z,84.64
2022-12-05T10:27:08.853Z,84.75
2022-12-05T10:29:49.262Z,86.29
2022-12-05T10:32:30.523Z,85.77
2022-12-05T10:35:19.778Z,84.48
2022-12-05T10:37:54.518Z,85.01
2022-12-05T10:40:22.596Z,85.45
2022-12-05T10:42:52.678Z,84.89
2022-12-05T10:45:23.906Z,84.76
2022-12-05T10:47:59.087Z,85.34
2022-12-05T10:50:30.684Z,84.23
2022-12-05T10:53:00.539Z,84.70
2022-12-05T10:55:59.972Z,85.46
2022-12-05T10:58:33.665Z,85.35
2022-12-05T11:01:15.986Z,84.14
2022-12-05T11:03:44.138Z,84.19
2022-12-05T11:06:44.031Z,83.13
2022-12-05T11:09:31.031Z,84.00
2022-12-05T11:12:09.238Z,82.85
2022-12-05T11:14:36.546Z,83.74
2022-12-05T11:17:06.863Z,84.93
2022-12-05T11:19:40.100Z,83.87
2022-12-05T11:22:08.282Z,83.05
2022-12-05T11:24:39.610Z,84.51
2022-12-05T11:27:32.183Z,83.84
2022-12-05T11:30:05.153Z,83.20
2022-12-05T11:32:34.022Z,84.50
2022-12-05T11:35:13.259Z,84.72
2022-12-05T11:38:02.124Z,86.38
2022-12-05T11:40:57.791Z,85.75
2022-12-05T11:43:30.642Z,84.87
2022-12-05T11:46:31.783Z,86.25
2022-12-05T11:50:06.071Z,85.17
2022-12-05T11:52:58.111Z,84.45
2022-12-05T11:55:34.533Z,85.87
2022-12-05T11:58:35.136Z,84.17
2022-12-05T12:01:33.756Z,85.21
2022-12-05T12:04:25.677Z,84.21
2022-12-05T12:07:46.085Z,85.13
2022-12-05T12:10:50.862Z,83.94
2022-12-05T12:13:26.796Z,83.93
2022-12-05T12:16:22.590Z,84.11
2022-12-05T12:19:21.864Z,84.41
2022-12-05T12:22:32.835Z,82.99
2022-12-05T12:25:21.196Z,83.83
2022-12-05T12:28:08.735Z,83.84
2022-12-05T12:31:22.465Z,84.57
2022-12-05T12:34:26.685Z,84.00
2022-12-05T12:37:19.812Z,84.12
2022-12-05T12:40:19.213Z,84.75
2022-12-05T12:43:08.067Z,83.99
2022-12-05T12:46:08.088Z,83.18
2022-12-05T12:49:35.096Z,83.64
2022-12-05T12:52:14.647Z,84.53
2022-12-05T12:55:32.061Z,83.87
2022-12-05T12:58:27.584Z,82.27
2022-12-05T13:01:03.648Z,83.38
2022-12-05T13:03:51.719Z,84.93
2022-12-05T13:06:31.257Z,83.49
2022-12-05T13:09:12.565Z,82.90
2022-12-05T13:11:44.534Z,83.98
2022-12-05T13:14:24.987Z,82.56
2022-12-05T13:16:54.833Z,84.28
2022-12-05T13:19:53.954Z,85.34
2022-12-05T13:22:26.678Z,85.92
2022-12-05T13:24:55.282Z,84.84
2022-12-05T13:27:27.534Z,86.60
2022-12-05T13:30:02.698Z,85.21
2022-12-05T13:32:43.851Z,85.31
2022-12-05T13:35:49.685Z,84.55
2022-12-05T13:38:50.466Z,83.82
2022-12-05T13:41:36.725Z,84.64
2022-12-05T13:44:12.537Z,84.57
2022-12-05T13:46:43.848Z,83.47
2022-12-05T13:49:48.166Z,82.99
2022-12-05T13:52:30.296Z,83.58
2022-12-05T13:55:35.622Z,83.49
2022-12-05T13:58:23.635Z,83.04
2022-12-05T14:00:52.358Z,82.73
2022-12-05T14:03:36.857Z,83.47
2022-12-05T14:06:06.622Z,82.98
2022-12-05T14:08:39.909Z,84.07
2022-12-05T14:11:13.713Z,84.79
2022-12-05T14:13:43.714Z,84.14
2022-12-05T14:16:31.658Z,85.40
2022-12-05T14:19:34.394Z,84.54
2022-12-05T14:22:38.570Z,84.85
2022-12-05T14:25:57.392Z,85.11
2022-12-05T14:28:58.792Z,85.27
2022-12-05T14:32:04.692Z,86.18
2022-12-05T14:34:36.614Z,86.82
2022-12-05T14:37:15.612Z,87.28
2022-12-05T14:39:49.111Z,87.27
2022-12-05T14:42:51.299Z,86.73
2022-12-05T14:45:50.946Z,88.06
2022-12-05T14:48:17.986Z,87.98
2022-12-05T14:50:51.077Z,88.76
2022-12-05T14:53:21.243Z,88.45
2022-12-05T14:55:54.300Z,87.77
2022-12-05T14:58:52.011Z,87.13
2022-12-05T15:01:54.934Z,86.70
2022-12-05T15:05:12.287Z,88.49
2022-12-05T15:07:40.505Z,89.00
2022-12-05T15:10:14.152Z,87.36
2022-12-05T15:12:53.738Z,88.89
2022-12-05T15:15:36.674Z,90.05
2022-12-05T15:18:31.952Z,88.24
2022-12-05T15:21:14.757Z,87.21
2022-12-05T15:23:46.461Z,87.54
2022-12-05T15:29:21.176Z,88.51
2022-12-05T15:31:55.313Z,88.32
2022-12-05T15:34:53.140Z,88.75
2022-12-05T15:37:35.111Z,87.54
2022-12-05T15:40:17.985Z,87.52
2022-12-05T15:43:24.352Z,87.66
2022-12-05T15:46:06.282Z,89.34
2022-12-05T15:48:33.462Z,89.60
2022-12-05T15:51:03.187Z,88.35
2022-12-05T15:53:45.014Z,87.82
2022-12-05T15:56:39.489Z,88.80
2022-12-05T15:59:18.711Z,87.94
2022-12-05T16:02:23.715Z,87.17
2022-12-05T16:04:57.155Z,88.27
2022-12-05T16:07:34.034Z,88.04
2022-12-05T16:10:02.710Z,88.08
2022-12-05T16:12:42.483Z,86.67
2022-12-05T16:15:24.214Z,87.51
2022-12-05T16:18:01.662Z,87.46
2022-12-05T16:20:33.185Z,86.21
2022-12-05T16:23:30.394Z,86.25
2022-12-05T16:26:21.426Z,87.48
2022-12-05T16:29:00.969Z,87.20
2022-12-05T16:31:30.097Z,85.63
2022-12-05T16:34:14.538Z,85.82
2022-12-05T16:36:54.487Z,86.73
2022-12-05T16:39:23.595Z,85.97
2022-12-05T16:41:51.588Z,86.32
2022-12-05T16:44:28.598Z,86.15
2022-12-05T16:47:00.498Z,84.99
2022-12-05T16:49:30.862Z,86.54
2022-12-05T16:52:14.638Z,85.71
2022-12-05T16:54:46.066Z,87.33
2022-12-05T16:57:16.402Z,86.53
2022-12-05T16:59:45.844Z,86.01
2022-12-05T17:02:19.400Z,85.76
2022-12-05T17:04:47.259Z,85.40
2022-12-05T17:07:14.727Z,86.05
2022-12-05T17:09:44.388Z,87.27
2022-12-05T17:12:20.820Z,87.71
2022-12-05T17:14:50.370Z,87.91
2022-12-05T17:17:19.291Z,88.91
2022-12-05T17:19:46.710Z,89.29
2022-12-05T17:22:16.136Z,87.83
2022-12-05T17:24:43.957Z,88.57
2022-12-05T17:27:14.668Z,87.20
2022-12-05T17:29:44.685Z,87.56
2022-12-05T17:32:13.429Z,87.07
2022-12-05T17:34:42.956Z,86.73
2022-12-05T17:37:10.197Z,86.49
2022-12-05T17:39:37.454Z,87.66
2022-12-05T17:42:04.834Z,87.91
2022-12-05T17:44:32.136Z,89.10
2022-12-05T17:47:07.770Z,89.42
2022-12-05T17:49:36.012Z,88.76
2022-12-05T17:54:54.178Z,88.15
2022-12-05T17:57:22.590Z,88.08
2022-12-05T17:59:49.981Z,88.88
2022-12-05T18:02:20.273Z,88.21
2022-12-05T18:04:47.621Z,87.14
2022-12-05T18:07:17.379Z,87.13
2022-12-05T18:09:44.656Z,87.24
2022-12-05T18:12:11.979Z,87.80
2022-12-05T18:14:42.227Z,87.76
2022-12-05T18:17:11.892Z,87.38
2022-12-05T18:19:39.182Z,87.25
2022-12-05T18:22:08.884Z,87.05
2022-12-05T18:24:36.053Z,86.89
2022-12-05T18:27:05.523Z,87.69
2022-12-05T18:29:32.838Z,86.13
2022-12-05T18:32:00.354Z,86.47
2022-12-05T18:34:27.644Z,87.25
2022-12-05T18:36:57.463Z,86.93
2022-12-05T18:39:24.902Z,87.16
2022-12-05T18:41:52.592Z,86.66
2022-12-05T18:44:21.118Z,87.02
2022-12-05T18:46:48.773Z,87.28
2022-12-05T18:49:16.163Z,87.34
2022-12-05T18:51:43.396Z,88.37
2022-12-05T18:54:10.905Z,86.58
2022-12-05T18:56:40.904Z,87.01
2022-12-05T18:59:14.673Z,87.11
2022-12-05T19:01:45.999Z,87.40
2022-12-05T19:04:17.223Z,87.53
2022-12-05T19:07:02.053Z,86.63
2022-12-05T19:09:34.016Z,86.06
2022-12-05T19:12:01.769Z,86.22
2022-12-05T19:14:33.193Z,86.24
2022-12-05T19:17:00.948Z,86.45
2022-12-05T19:19:29.429Z,86.22
2022-12-05T19:21:59.586Z,86.49
2022-12-05T19:24:27.160Z,86.04
2022-12-05T19:26:54.414Z,86.18
2022-12-05T19:29:21.849Z,86.02
2022-12-05T19:31:49.857Z,85.54
2022-12-05T19:34:17.070Z,85.63
2022-12-05T19:36:46.365Z,86.27
2022-12-05T19:39:20.693Z,85.90
2022-12-05T19:41:49.381Z,87.82
2022-12-05T19:44:17.449Z,86.84
2022-12-05T19:46:47.387Z,87.73
2022-12-05T19:49:19.016Z,86.63
2022-12-05T19:51:48.625Z,87.33
2022-12-05T19:54:22.226Z,86.43
2022-12-05T19:56:58.537Z,86.86
2022-12-05T19:59:28.526Z,87.67
2022-12-05T20:01:58.130Z,86.69
2022-12-05T20:04:25.822Z,86.53
2022-12-05T20:06:53.185Z,86.59
2022-12-05T20:09:23.044Z,86.50
2022-12-05T20:11:55.544Z,86.55
2022-12-05T20:14:28.905Z,86.65
2022-12-05T20:16:59.059Z,87.72
2022-12-05T20:19:29.984Z,88.56
2022-12-05T20:21:58.875Z,86.48
2022-12-05T20:24:26.128Z,87.03
2022-12-05T20:26:54.998Z,87.26
2022-12-05T20:29:22.391Z,87.80
2022-12-05T20:31:53.214Z,87.94
2022-12-05T20:34:20.852Z,87.49
2022-12-05T20:36:48.219Z,88.89
2022-12-05T20:39:20.006Z,88.28
2022-12-05T20:41:52.725Z,87.91
2022-12-05T20:44:20.053Z,88.68
2022-12-05T20:46:50.689Z,87.82
2022-12-05T20:49:18.714Z,87.87
2022-12-05T20:51:50.352Z,91.00
2022-12-05T20:54:21.351Z,91.61
2022-12-05T20:56:56.176Z,90.97
2022-12-05T20:59:32.635Z,92.35
2022-12-05T21:02:02.872Z,92.30
2022-12-05T21:04:40.041Z,90.62
2022-12-05T21:07:08.829Z,89.07
2022-12-05T21:09:39.341Z,87.14
2022-12-05T21:12:07.386Z,87.90
2022-12-05T21:14:42.427Z,88.35
2022-12-05T21:17:27.937Z,88.91
2022-12-05T21:20:01.857Z,87.67
2022-12-05T21:22:36.263Z,86.98
2022-12-05T21:25:14.758Z,87.42
2022-12-05T21:27:55.181Z,88.26
2022-12-05T21:30:30.052Z,89.29
2022-12-05T21:33:06.520Z,90.58
2022-12-05T21:35:46.602Z,90.69
2022-12-05T21:38:49.536Z,88.59
2022-12-05T21:41:26.069Z,89.00
2022-12-05T21:44:03.277Z,90.00
2022-12-05T21:46:38.109Z,90.30
2022-12-05T21:49:24.402Z,91.76
2022-12-05T21:52:30.715Z,89.32
2022-12-05T21:55:16.701Z,88.91
2022-12-05T21:57:48.379Z,88.09
2022-12-05T22:00:18.327Z,87.75
2022-12-05T22:02:46.677Z,88.40
2022-12-05T22:05:20.313Z,87.61
2022-12-05T22:07:54.392Z,87.51
2022-12-05T22:10:28.253Z,86.87
2022-12-05T22:12:57.795Z,89.92
2022-12-05T22:15:31.441Z,90.16
2022-12-05T22:18:01.686Z,88.92
2022-12-05T22:20:30.259Z,87.19
2022-12-05T22:23:01.031Z,88.03
2022-12-05T22:25:32.171Z,86.11
2022-12-05T22:28:07.612Z,88.50
2022-12-05T22:30:39.414Z,87.36
2022-12-05T22:33:10.584Z,86.62
2022-12-05T22:35:41.521Z,88.50
2022-12-05T22:38:12.111Z,87.18
2022-12-05T22:40:39.964Z,88.21
2022-12-05T22:43:07.855Z,88.54
2022-12-05T22:45:36.725Z,87.54
2022-12-05T22:48:05.111Z,86.72
2022-12-05T22:50:32.904Z,88.59
2022-12-05T22:53:05.498Z,88.60
2022-12-05T22:55:43.149Z,86.51
2022-12-05T22:58:16.847Z,88.16
2022-12-05T23:00:45.702Z,87.47
2022-12-05T23:03:19.699Z,86.92
2022-12-05T23:05:48.889Z,86.36
2022-12-05T23:08:22.422Z,86.07
2022-12-05T23:10:50.642Z,85.03
2022-12-05T23:13:18.679Z,84.50
2022-12-05T23:15:46.452Z,84.12
2022-12-05T23:18:16.187Z,83.81
2022-12-05T23:20:47.234Z,83.38
2022-12-05T23:23:15.194Z,85.74
2022-12-05T23:25:45.834Z,85.90
2022-12-05T23:28:14.005Z,85.82
2022-12-05T23:30:45.179Z,84.54
2022-12-05T23:33:14.412Z,84.95
2022-12-05T23:35:45.699Z,85.57
2022-12-05T23:38:13.924Z,87.46
2022-12-05T23:40:41.845Z,87.38
2022-12-05T23:43:09.661Z,86.01
2022-12-05T23:45:42.162Z,86.24
2022-12-05T23:48:09.845Z,86.45
2022-12-05T23:50:37.871Z,85.53
2022-12-05T23:53:08.895Z,84.78
2022-12-05T23:55:37.263Z,85.09
2022-12-05T23:58:05.480Z,85.41
